Aberdaron, United Kingdom
Current Conditions -  °F | °C
As of 3:50 AM on Saturday 25 Oct 2014 (Local Time) from EGOV Reporting Station
Broken Clouds Broken Clouds  
Wind Chill: 54°   Ceiling: 5000
Heat Index: 54°   Visibility: 6mi
Dew Point: 46°   Wind: 23mph
Humidity: 77%   Direction: 220°SW
Pressure: 29.88"   Gusts: NA
Location:  52.78°N, 4.73°W
Report Text: EGOV 250250Z AUTO 22020KT 9999 BKN050/// 12/08 Q1012
Loading
Personal Weather Stations






























Interactive Weather Map New forecast layout! Learn more

10-Day Weather Forecast

Advertisements
Track Severe Weather on mobile